Delta Virtual Airport Information Service

Fredericton International Airport

ICAO: CYFC Country: Canada
Latitude: 45.8689 Longitude: -66.5372
Latest Arrival : DAC6996 (KMCO-CYFC) Latest Departure : DAC6996 (CYFC-BIKF)


WX CaptureLIVE
Data provided by noaa.gov | Fetched at 04:58:34

METAR : CYFC 031012Z AUTO 28006KT 240V300 9SM FEW037 BKN046 BKN050 OVC071 04/03 A2920 RMK SLP891

TAF : CYFC 030918Z 0309/0318 27008KT P6SM OVC025 TEMPO 0309/0312 5SM -SHRA BR BKN007 FM031200 27012G22KT P6SM BKN025 TEMPO 0312/0314 5SM -SHRASN BR BKN020 BECMG 0312/0314 30020G30KT FM031400 30020G30KT P6SM BKN030 TEMPO 0314/0318 P6SM -SHSN RMK FCST BASED ON AUTO OBS. NXT FCST BY 031200Z


Runway Data for CYFC
Data provided by openaviationdata.com

Runway ID Mag Var Hdg Length Elevation Surface ILS Freq ILS Id ILS Slope
9 -19 88° 8000 ft 68 ft Asphalt 111.3 IDC 3
15 -19 149° 5994 ft 68 ft Asphalt -- -- --
27 -19 268° 8000 ft 68 ft Asphalt -- -- --
33 -19 329° 5994 ft 68 ft Asphalt -- -- --

Fredericton International Airport, Canada
Use only for reference purposes



Not for navigational purposes.